sensor_id;sensor_type;location;lat;lon;timestamp;temperature;humidity
13817;DHT22;6979;52.116;5.286;2023-06-24T00:00:02;23.00;93.80
13817;DHT22;6979;52.116;5.286;2023-06-24T00:02:32;23.00;94.00
13817;DHT22;6979;52.116;5.286;2023-06-24T00:05:02;23.00;94.10
13817;DHT22;6979;52.116;5.286;2023-06-24T00:07:30;23.00;94.20
13817;DHT22;6979;52.116;5.286;2023-06-24T00:09:59;23.00;94.50
13817;DHT22;6979;52.116;5.286;2023-06-24T00:12:25;22.90;94.40
13817;DHT22;6979;52.116;5.286;2023-06-24T00:14:53;22.90;94.40
13817;DHT22;6979;52.116;5.286;2023-06-24T00:17:20;22.80;94.40
13817;DHT22;6979;52.116;5.286;2023-06-24T00:19:47;22.80;94.50
13817;DHT22;6979;52.116;5.286;2023-06-24T00:22:14;22.70;94.60
13817;DHT22;6979;52.116;5.286;2023-06-24T00:24:40;22.70;94.60
13817;DHT22;6979;52.116;5.286;2023-06-24T00:27:14;22.70;94.60
13817;DHT22;6979;52.116;5.286;2023-06-24T00:29:41;22.70;94.70
13817;DHT22;6979;52.116;5.286;2023-06-24T00:32:08;22.70;94.70
13817;DHT22;6979;52.116;5.286;2023-06-24T00:34:35;22.70;94.70
13817;DHT22;6979;52.116;5.286;2023-06-24T00:37:02;22.70;94.80
13817;DHT22;6979;52.116;5.286;2023-06-24T00:39:29;22.70;94.70
13817;DHT22;6979;52.116;5.286;2023-06-24T00:41:56;22.70;94.70
13817;DHT22;6979;52.116;5.286;2023-06-24T00:44:24;22.70;94.80
13817;DHT22;6979;52.116;5.286;2023-06-24T00:46:53;22.70;94.80
13817;DHT22;6979;52.116;5.286;2023-06-24T00:49:20;22.80;94.70
13817;DHT22;6979;52.116;5.286;2023-06-24T00:51:50;22.80;94.80
13817;DHT22;6979;52.116;5.286;2023-06-24T00:54:18;22.80;94.70
13817;DHT22;6979;52.116;5.286;2023-06-24T00:56:46;22.80;94.80
13817;DHT22;6979;52.116;5.286;2023-06-24T00:59:15;22.80;94.90
13817;DHT22;6979;52.116;5.286;2023-06-24T01:01:45;22.80;95.00
13817;DHT22;6979;52.116;5.286;2023-06-24T01:04:13;22.70;95.00
13817;DHT22;6979;52.116;5.286;2023-06-24T01:06:42;22.70;94.90
13817;DHT22;6979;52.116;5.286;2023-06-24T01:09:10;22.70;95.00
13817;DHT22;6979;52.116;5.286;2023-06-24T01:11:38;22.70;95.10
13817;DHT22;6979;52.116;5.286;2023-06-24T01:14:05;22.60;95.00
13817;DHT22;6979;52.116;5.286;2023-06-24T01:16:37;22.60;95.10
13817;DHT22;6979;52.116;5.286;2023-06-24T01:19:22;22.60;95.20
13817;DHT22;6979;52.116;5.286;2023-06-24T01:22:04;22.50;95.50
13817;DHT22;6979;52.116;5.286;2023-06-24T01:24:55;22.50;95.70
13817;DHT22;6979;52.116;5.286;2023-06-24T01:28:03;22.40;95.90
13817;DHT22;6979;52.116;5.286;2023-06-24T01:30:58;22.40;95.80
13817;DHT22;6979;52.116;5.286;2023-06-24T01:33:38;22.30;95.60
13817;DHT22;6979;52.116;5.286;2023-06-24T01:36:19;22.30;95.70
13817;DHT22;6979;52.116;5.286;2023-06-24T01:38:50;22.30;95.70
13817;DHT22;6979;52.116;5.286;2023-06-24T01:41:22;22.20;95.70
13817;DHT22;6979;52.116;5.286;2023-06-24T01:43:52;22.20;95.90
13817;DHT22;6979;52.116;5.286;2023-06-24T01:46:22;22.20;95.90
13817;DHT22;6979;52.116;5.286;2023-06-24T01:48:54;22.20;96.10
13817;DHT22;6979;52.116;5.286;2023-06-24T01:51:24;22.10;96.10
13817;DHT22;6979;52.116;5.286;2023-06-24T01:53:53;22.10;96.10
13817;DHT22;6979;52.116;5.286;2023-06-24T01:56:23;22.10;96.40
13817;DHT22;6979;52.116;5.286;2023-06-24T01:58:53;22.00;96.40
13817;DHT22;6979;52.116;5.286;2023-06-24T02:01:23;21.90;96.40
13817;DHT22;6979;52.116;5.286;2023-06-24T02:03:54;21.90;96.50
13817;DHT22;6979;52.116;5.286;2023-06-24T02:06:23;21.80;96.40
13817;DHT22;6979;52.116;5.286;2023-06-24T02:08:51;21.80;96.40
13817;DHT22;6979;52.116;5.286;2023-06-24T02:11:20;21.80;96.70
13817;DHT22;6979;52.116;5.286;2023-06-24T02:13:48;21.80;96.80
13817;DHT22;6979;52.116;5.286;2023-06-24T02:16:17;21.70;96.80
13817;DHT22;6979;52.116;5.286;2023-06-24T02:18:44;21.70;96.90
13817;DHT22;6979;52.116;5.286;2023-06-24T02:21:16;21.60;96.90
13817;DHT22;6979;52.116;5.286;2023-06-24T02:23:46;21.60;97.10
13817;DHT22;6979;52.116;5.286;2023-06-24T02:26:14;21.50;97.20
13817;DHT22;6979;52.116;5.286;2023-06-24T02:28:44;21.40;97.20
13817;DHT22;6979;52.116;5.286;2023-06-24T02:31:12;21.40;97.30
13817;DHT22;6979;52.116;5.286;2023-06-24T02:33:41;21.30;97.30
13817;DHT22;6979;52.116;5.286;2023-06-24T02:36:08;21.30;97.50
13817;DHT22;6979;52.116;5.286;2023-06-24T02:38:36;21.20;97.60
13817;DHT22;6979;52.116;5.286;2023-06-24T02:41:03;21.20;97.70
13817;DHT22;6979;52.116;5.286;2023-06-24T02:43:30;21.20;97.80
13817;DHT22;6979;52.116;5.286;2023-06-24T02:45:59;21.10;97.80
13817;DHT22;6979;52.116;5.286;2023-06-24T02:48:28;21.00;98.00
13817;DHT22;6979;52.116;5.286;2023-06-24T02:50:57;21.00;98.20
13817;DHT22;6979;52.116;5.286;2023-06-24T02:53:25;21.00;98.40
13817;DHT22;6979;52.116;5.286;2023-06-24T02:55:55;20.90;98.40
13817;DHT22;6979;52.116;5.286;2023-06-24T02:58:24;20.90;98.50
13817;DHT22;6979;52.116;5.286;2023-06-24T03:01:11;20.80;98.60
13817;DHT22;6979;52.116;5.286;2023-06-24T03:03:52;20.80;98.70
13817;DHT22;6979;52.116;5.286;2023-06-24T03:06:21;20.80;98.80
13817;DHT22;6979;52.116;5.286;2023-06-24T03:08:50;20.80;99.40
13817;DHT22;6979;52.116;5.286;2023-06-24T03:11:22;20.70;99.00
13817;DHT22;6979;52.116;5.286;2023-06-24T03:13:50;20.70;99.10
13817;DHT22;6979;52.116;5.286;2023-06-24T03:16:20;20.70;99.10
13817;DHT22;6979;52.116;5.286;2023-06-24T03:18:55;20.60;99.10
13817;DHT22;6979;52.116;5.286;2023-06-24T03:21:22;20.60;99.30
13817;DHT22;6979;52.116;5.286;2023-06-24T03:23:55;20.60;99.50
13817;DHT22;6979;52.116;5.286;2023-06-24T03:26:31;20.60;99.90
13817;DHT22;6979;52.116;5.286;2023-06-24T03:28:58;20.60;99.90
13817;DHT22;6979;52.116;5.286;2023-06-24T03:31:26;20.60;99.90
13817;DHT22;6979;52.116;5.286;2023-06-24T03:33:53;20.60;99.90
13817;DHT22;6979;52.116;5.286;2023-06-24T03:36:20;20.60;99.90
13817;DHT22;6979;52.116;5.286;2023-06-24T03:38:50;20.50;99.90
13817;DHT22;6979;52.116;5.286;2023-06-24T03:41:17;20.50;99.90
13817;DHT22;6979;52.116;5.286;2023-06-24T03:43:46;20.40;99.90
13817;DHT22;6979;52.116;5.286;2023-06-24T03:46:13;20.40;99.90
13817;DHT22;6979;52.116;5.286;2023-06-24T03:48:40;20.40;99.90
13817;DHT22;6979;52.116;5.286;2023-06-24T03:51:07;20.40;99.90
13817;DHT22;6979;52.116;5.286;2023-06-24T03:53:36;20.40;99.90
13817;DHT22;6979;52.116;5.286;2023-06-24T03:56:03;20.40;99.90
13817;DHT22;6979;52.116;5.286;2023-06-24T03:58:30;20.40;99.90
13817;DHT22;6979;52.116;5.286;2023-06-24T04:01:01;20.40;99.90
13817;DHT22;6979;52.116;5.286;2023-06-24T04:03:28;20.40;99.90
13817;DHT22;6979;52.116;5.286;2023-06-24T04:05:55;20.40;99.90
13817;DHT22;6979;52.116;5.286;2023-06-24T04:08:22;20.30;99.90
13817;DHT22;6979;52.116;5.286;2023-06-24T04:10:51;20.30;99.90
13817;DHT22;6979;52.116;5.286;2023-06-24T04:13:18;20.30;99.90
13817;DHT22;6979;52.116;5.286;2023-06-24T04:15:45;20.30;99.90
13817;DHT22;6979;52.116;5.286;2023-06-24T04:18:13;20.30;99.90
13817;DHT22;6979;52.116;5.286;2023-06-24T04:20:43;20.30;99.90
13817;DHT22;6979;52.116;5.286;2023-06-24T04:23:10;20.30;99.90
13817;DHT22;6979;52.116;5.286;2023-06-24T04:25:37;20.30;99.90
13817;DHT22;6979;52.116;5.286;2023-06-24T04:28:04;20.30;99.90
13817;DHT22;6979;52.116;5.286;2023-06-24T04:30:31;20.20;99.90
13817;DHT22;6979;52.116;5.286;2023-06-24T04:33:01;20.30;99.90
13817;DHT22;6979;52.116;5.286;2023-06-24T04:35:30;20.30;99.90
13817;DHT22;6979;52.116;5.286;2023-06-24T04:37:57;20.30;99.90
13817;DHT22;6979;52.116;5.286;2023-06-24T04:40:24;20.30;99.90
13817;DHT22;6979;52.116;5.286;2023-06-24T04:42:51;20.40;99.90
13817;DHT22;6979;52.116;5.286;2023-06-24T04:45:17;20.40;99.90
13817;DHT22;6979;52.116;5.286;2023-06-24T04:47:44;20.40;99.90
13817;DHT22;6979;52.116;5.286;2023-06-24T04:50:11;20.40;99.90
13817;DHT22;6979;52.116;5.286;2023-06-24T04:52:40;20.50;99.90
13817;DHT22;6979;52.116;5.286;2023-06-24T04:55:07;20.50;99.90
13817;DHT22;6979;52.116;5.286;2023-06-24T04:57:34;20.50;99.90
13817;DHT22;6979;52.116;5.286;2023-06-24T05:00:02;20.50;99.90
13817;DHT22;6979;52.116;5.286;2023-06-24T05:02:30;20.60;99.90
13817;DHT22;6979;52.116;5.286;2023-06-24T05:04:57;20.60;99.90
13817;DHT22;6979;52.116;5.286;2023-06-24T05:07:24;20.60;99.90
13817;DHT22;6979;52.116;5.286;2023-06-24T05:09:53;20.70;99.90
13817;DHT22;6979;52.116;5.286;2023-06-24T05:12:20;20.70;99.90
13817;DHT22;6979;52.116;5.286;2023-06-24T05:14:50;20.80;99.90
13817;DHT22;6979;52.116;5.286;2023-06-24T05:17:17;20.80;99.90
13817;DHT22;6979;52.116;5.286;2023-06-24T05:19:45;20.90;99.90
13817;DHT22;6979;52.116;5.286;2023-06-24T05:22:12;21.00;99.90
13817;DHT22;6979;52.116;5.286;2023-06-24T05:24:39;21.00;99.90
13817;DHT22;6979;52.116;5.286;2023-06-24T05:27:08;21.10;99.90
13817;DHT22;6979;52.116;5.286;2023-06-24T05:29:35;21.10;99.90
13817;DHT22;6979;52.116;5.286;2023-06-24T05:32:02;21.20;99.90
13817;DHT22;6979;52.116;5.286;2023-06-24T05:34:29;21.20;99.90
13817;DHT22;6979;52.116;5.286;2023-06-24T05:36:57;21.30;99.90
13817;DHT22;6979;52.116;5.286;2023-06-24T05:39:24;21.30;99.90
13817;DHT22;6979;52.116;5.286;2023-06-24T05:41:51;21.40;99.90
13817;DHT22;6979;52.116;5.286;2023-06-24T05:44:20;21.40;99.90
13817;DHT22;6979;52.116;5.286;2023-06-24T05:46:48;21.50;99.90
13817;DHT22;6979;52.116;5.286;2023-06-24T05:49:15;21.50;99.90
13817;DHT22;6979;52.116;5.286;2023-06-24T05:51:42;21.60;99.90
13817;DHT22;6979;52.116;5.286;2023-06-24T05:54:09;21.60;99.90
13817;DHT22;6979;52.116;5.286;2023-06-24T05:56:36;21.70;99.90
13817;DHT22;6979;52.116;5.286;2023-06-24T05:59:03;21.70;99.90
13817;DHT22;6979;52.116;5.286;2023-06-24T06:01:32;21.80;99.90
13817;DHT22;6979;52.116;5.286;2023-06-24T06:03:59;21.90;99.90
13817;DHT22;6979;52.116;5.286;2023-06-24T06:06:25;21.90;99.90
13817;DHT22;6979;52.116;5.286;2023-06-24T06:08:52;22.00;99.90
13817;DHT22;6979;52.116;5.286;2023-06-24T06:11:19;22.10;99.90
13817;DHT22;6979;52.116;5.286;2023-06-24T06:13:46;22.20;99.90
13817;DHT22;6979;52.116;5.286;2023-06-24T06:16:13;22.30;99.90
13817;DHT22;6979;52.116;5.286;2023-06-24T06:18:42;22.30;99.90
13817;DHT22;6979;52.116;5.286;2023-06-24T06:21:09;22.40;99.90
13817;DHT22;6979;52.116;5.286;2023-06-24T06:23:35;22.50;99.90
13817;DHT22;6979;52.116;5.286;2023-06-24T06:26:02;22.60;99.90
13817;DHT22;6979;52.116;5.286;2023-06-24T06:28:30;22.70;99.90
13817;DHT22;6979;52.116;5.286;2023-06-24T06:30:57;22.70;99.90
13817;DHT22;6979;52.116;5.286;2023-06-24T06:33:24;22.80;99.90
13817;DHT22;6979;52.116;5.286;2023-06-24T06:35:52;22.90;99.90
13817;DHT22;6979;52.116;5.286;2023-06-24T06:38:19;23.00;99.90
13817;DHT22;6979;52.116;5.286;2023-06-24T06:40:46;23.10;99.90
13817;DHT22;6979;52.116;5.286;2023-06-24T06:43:14;23.20;99.90
13817;DHT22;6979;52.116;5.286;2023-06-24T06:45:41;23.20;99.90
13817;DHT22;6979;52.116;5.286;2023-06-24T06:48:08;23.30;99.90
13817;DHT22;6979;52.116;5.286;2023-06-24T06:50:35;23.40;99.90
13817;DHT22;6979;52.116;5.286;2023-06-24T06:53:03;23.50;99.90
13817;DHT22;6979;52.116;5.286;2023-06-24T06:55:31;23.60;99.90
13817;DHT22;6979;52.116;5.286;2023-06-24T06:58:00;23.60;99.90
13817;DHT22;6979;52.116;5.286;2023-06-24T07:00:28;23.70;99.90
13817;DHT22;6979;52.116;5.286;2023-06-24T07:02:57;23.80;99.90
13817;DHT22;6979;52.116;5.286;2023-06-24T07:05:26;23.90;99.90
13817;DHT22;6979;52.116;5.286;2023-06-24T07:07:55;23.90;99.90
13817;DHT22;6979;52.116;5.286;2023-06-24T07:10:23;24.00;99.90
13817;DHT22;6979;52.116;5.286;2023-06-24T07:12:51;24.10;99.90
13817;DHT22;6979;52.116;5.286;2023-06-24T07:15:24;24.20;99.90
13817;DHT22;6979;52.116;5.286;2023-06-24T07:17:52;24.30;99.90
13817;DHT22;6979;52.116;5.286;2023-06-24T07:20:19;24.30;99.90
13817;DHT22;6979;52.116;5.286;2023-06-24T07:22:46;24.40;99.90
13817;DHT22;6979;52.116;5.286;2023-06-24T07:25:13;24.50;99.90
13817;DHT22;6979;52.116;5.286;2023-06-24T07:27:41;24.60;99.90
13817;DHT22;6979;52.116;5.286;2023-06-24T07:30:09;24.60;99.90
13817;DHT22;6979;52.116;5.286;2023-06-24T07:32:36;24.70;99.90
13817;DHT22;6979;52.116;5.286;2023-06-24T07:35:04;24.80;99.90
13817;DHT22;6979;52.116;5.286;2023-06-24T07:37:32;24.90;99.90
13817;DHT22;6979;52.116;5.286;2023-06-24T07:39:59;24.90;99.90
13817;DHT22;6979;52.116;5.286;2023-06-24T07:42:26;25.00;99.90
13817;DHT22;6979;52.116;5.286;2023-06-24T07:44:54;25.00;99.90
13817;DHT22;6979;52.116;5.286;2023-06-24T07:47:21;25.10;99.90
13817;DHT22;6979;52.116;5.286;2023-06-24T07:49:48;25.20;99.90
13817;DHT22;6979;52.116;5.286;2023-06-24T07:52:15;25.30;99.90
13817;DHT22;6979;52.116;5.286;2023-06-24T07:54:43;25.40;99.90
13817;DHT22;6979;52.116;5.286;2023-06-24T07:57:10;25.40;99.90
13817;DHT22;6979;52.116;5.286;2023-06-24T07:59:37;25.50;99.90
13817;DHT22;6979;52.116;5.286;2023-06-24T08:02:05;25.60;99.90
13817;DHT22;6979;52.116;5.286;2023-06-24T08:04:32;25.70;99.90
13817;DHT22;6979;52.116;5.286;2023-06-24T08:06:59;25.70;99.90
13817;DHT22;6979;52.116;5.286;2023-06-24T08:09:26;25.80;99.90
13817;DHT22;6979;52.116;5.286;2023-06-24T08:11:53;25.90;99.70
13817;DHT22;6979;52.116;5.286;2023-06-24T08:14:20;25.90;99.90
13817;DHT22;6979;52.116;5.286;2023-06-24T08:16:47;26.00;99.90
13817;DHT22;6979;52.116;5.286;2023-06-24T08:19:15;26.00;98.70
13817;DHT22;6979;52.116;5.286;2023-06-24T08:21:42;26.10;98.50
13817;DHT22;6979;52.116;5.286;2023-06-24T08:24:09;26.10;98.80
13817;DHT22;6979;52.116;5.286;2023-06-24T08:26:36;26.20;98.60
13817;DHT22;6979;52.116;5.286;2023-06-24T08:29:03;26.20;98.80
13817;DHT22;6979;52.116;5.286;2023-06-24T08:31:30;26.30;98.80
13817;DHT22;6979;52.116;5.286;2023-06-24T08:33:59;26.30;99.00
13817;DHT22;6979;52.116;5.286;2023-06-24T08:36:29;26.40;99.30
13817;DHT22;6979;52.116;5.286;2023-06-24T08:38:56;26.50;98.90
13817;DHT22;6979;52.116;5.286;2023-06-24T08:41:25;26.60;98.30
13817;DHT22;6979;52.116;5.286;2023-06-24T08:43:52;26.60;97.70
13817;DHT22;6979;52.116;5.286;2023-06-24T08:46:19;26.70;97.70
13817;DHT22;6979;52.116;5.286;2023-06-24T08:48:48;26.80;97.20
13817;DHT22;6979;52.116;5.286;2023-06-24T08:51:18;26.90;97.00
13817;DHT22;6979;52.116;5.286;2023-06-24T08:53:48;27.00;97.20
13817;DHT22;6979;52.116;5.286;2023-06-24T08:56:16;27.10;97.10
13817;DHT22;6979;52.116;5.286;2023-06-24T08:58:44;27.50;97.40
13817;DHT22;6979;52.116;5.286;2023-06-24T09:01:11;27.80;97.50
13817;DHT22;6979;52.116;5.286;2023-06-24T09:03:39;28.40;96.80
13817;DHT22;6979;52.116;5.286;2023-06-24T09:06:05;28.90;96.30
13817;DHT22;6979;52.116;5.286;2023-06-24T09:08:32;29.40;95.40
13817;DHT22;6979;52.116;5.286;2023-06-24T09:11:02;29.90;95.00
13817;DHT22;6979;52.116;5.286;2023-06-24T09:13:34;30.40;93.60
13817;DHT22;6979;52.116;5.286;2023-06-24T09:16:11;31.00;92.70
13817;DHT22;6979;52.116;5.286;2023-06-24T09:18:38;31.50;91.30
13817;DHT22;6979;52.116;5.286;2023-06-24T09:21:05;31.80;91.50
13817;DHT22;6979;52.116;5.286;2023-06-24T09:23:35;32.20;91.20
13817;DHT22;6979;52.116;5.286;2023-06-24T09:26:09;32.40;90.70
13817;DHT22;6979;52.116;5.286;2023-06-24T09:28:36;32.60;90.30
13817;DHT22;6979;52.116;5.286;2023-06-24T09:31:07;32.70;90.50
13817;DHT22;6979;52.116;5.286;2023-06-24T09:33:34;32.70;89.20
13817;DHT22;6979;52.116;5.286;2023-06-24T09:36:02;32.70;89.60
13817;DHT22;6979;52.116;5.286;2023-06-24T09:38:34;32.60;88.20
13817;DHT22;6979;52.116;5.286;2023-06-24T09:41:02;32.50;88.90
13817;DHT22;6979;52.116;5.286;2023-06-24T09:43:33;32.50;88.40
13817;DHT22;6979;52.116;5.286;2023-06-24T09:46:01;32.60;88.50
13817;DHT22;6979;52.116;5.286;2023-06-24T09:48:28;32.80;87.70
13817;DHT22;6979;52.116;5.286;2023-06-24T09:50:58;33.00;87.50
13817;DHT22;6979;52.116;5.286;2023-06-24T09:53:30;33.40;86.70
13817;DHT22;6979;52.116;5.286;2023-06-24T09:56:00;33.70;85.50
13817;DHT22;6979;52.116;5.286;2023-06-24T09:58:28;34.00;85.70
13817;DHT22;6979;52.116;5.286;2023-06-24T10:01:03;34.40;84.70
13817;DHT22;6979;52.116;5.286;2023-06-24T10:03:33;34.70;84.20
13817;DHT22;6979;52.116;5.286;2023-06-24T10:06:00;35.00;83.40
13817;DHT22;6979;52.116;5.286;2023-06-24T10:08:30;35.30;82.30
13817;DHT22;6979;52.116;5.286;2023-06-24T10:10:58;35.60;82.30
13817;DHT22;6979;52.116;5.286;2023-06-24T10:13:28;36.00;80.80
13817;DHT22;6979;52.116;5.286;2023-06-24T10:15:56;36.30;79.60
13817;DHT22;6979;52.116;5.286;2023-06-24T10:18:35;36.50;78.80
13817;DHT22;6979;52.116;5.286;2023-06-24T10:21:03;36.70;78.40
13817;DHT22;6979;52.116;5.286;2023-06-24T10:23:31;36.70;77.30
13817;DHT22;6979;52.116;5.286;2023-06-24T10:25:58;36.80;75.60
13817;DHT22;6979;52.116;5.286;2023-06-24T10:28:25;36.90;75.60
13817;DHT22;6979;52.116;5.286;2023-06-24T10:30:56;36.90;75.70
13817;DHT22;6979;52.116;5.286;2023-06-24T10:33:24;36.90;74.80
13817;DHT22;6979;52.116;5.286;2023-06-24T10:35:52;36.90;75.30
13817;DHT22;6979;52.116;5.286;2023-06-24T10:38:19;36.90;74.80
13817;DHT22;6979;52.116;5.286;2023-06-24T10:40:49;36.90;74.70
13817;DHT22;6979;52.116;5.286;2023-06-24T10:43:26;36.90;75.30
13817;DHT22;6979;52.116;5.286;2023-06-24T10:45:56;36.90;76.30
13817;DHT22;6979;52.116;5.286;2023-06-24T10:48:23;37.00;76.00
13817;DHT22;6979;52.116;5.286;2023-06-24T10:50:52;37.10;76.00
13817;DHT22;6979;52.116;5.286;2023-06-24T10:53:19;37.20;75.30
13817;DHT22;6979;52.116;5.286;2023-06-24T10:55:46;37.40;75.30
13817;DHT22;6979;52.116;5.286;2023-06-24T10:58:14;37.50;75.10
13817;DHT22;6979;52.116;5.286;2023-06-24T11:00:41;37.60;73.50
13817;DHT22;6979;52.116;5.286;2023-06-24T11:03:10;37.60;74.20
13817;DHT22;6979;52.116;5.286;2023-06-24T11:05:39;37.60;74.60
13817;DHT22;6979;52.116;5.286;2023-06-24T11:08:08;37.60;74.80
13817;DHT22;6979;52.116;5.286;2023-06-24T11:10:42;37.70;74.80
13817;DHT22;6979;52.116;5.286;2023-06-24T11:13:10;37.70;73.90
13817;DHT22;6979;52.116;5.286;2023-06-24T11:15:38;37.70;73.80
13817;DHT22;6979;52.116;5.286;2023-06-24T11:18:07;37.70;74.50
13817;DHT22;6979;52.116;5.286;2023-06-24T11:20:36;37.60;74.50
13817;DHT22;6979;52.116;5.286;2023-06-24T11:23:08;37.60;74.80
13817;DHT22;6979;52.116;5.286;2023-06-24T11:25:39;37.70;75.60
13817;DHT22;6979;52.116;5.286;2023-06-24T11:28:13;37.70;73.90
13817;DHT22;6979;52.116;5.286;2023-06-24T11:30:40;37.70;73.60
13817;DHT22;6979;52.116;5.286;2023-06-24T11:33:07;37.50;73.60
13817;DHT22;6979;52.116;5.286;2023-06-24T11:35:34;37.30;73.40
13817;DHT22;6979;52.116;5.286;2023-06-24T11:38:03;37.10;73.80
13817;DHT22;6979;52.116;5.286;2023-06-24T11:40:33;36.80;74.90
13817;DHT22;6979;52.116;5.286;2023-06-24T11:43:01;36.50;74.20
13817;DHT22;6979;52.116;5.286;2023-06-24T11:45:28;36.20;74.00
13817;DHT22;6979;52.116;5.286;2023-06-24T11:48:02;36.00;74.50
13817;DHT22;6979;52.116;5.286;2023-06-24T11:50:31;35.60;74.20
13817;DHT22;6979;52.116;5.286;2023-06-24T11:52:58;35.40;75.10
13817;DHT22;6979;52.116;5.286;2023-06-24T11:55:26;35.20;76.40
13817;DHT22;6979;52.116;5.286;2023-06-24T11:57:56;35.10;76.40
13817;DHT22;6979;52.116;5.286;2023-06-24T12:00:24;35.20;76.30
13817;DHT22;6979;52.116;5.286;2023-06-24T12:02:54;35.30;76.80
13817;DHT22;6979;52.116;5.286;2023-06-24T12:05:25;35.40;76.60
13817;DHT22;6979;52.116;5.286;2023-06-24T12:07:57;35.40;75.80
13817;DHT22;6979;52.116;5.286;2023-06-24T12:10:25;35.60;74.60
13817;DHT22;6979;52.116;5.286;2023-06-24T12:12:52;35.50;74.40
13817;DHT22;6979;52.116;5.286;2023-06-24T12:15:21;35.40;73.40
13817;DHT22;6979;52.116;5.286;2023-06-24T12:17:48;35.10;73.50
13817;DHT22;6979;52.116;5.286;2023-06-24T12:20:15;35.00;73.80
13817;DHT22;6979;52.116;5.286;2023-06-24T12:22:43;34.80;74.70
13817;DHT22;6979;52.116;5.286;2023-06-24T12:25:10;34.70;74.30
13817;DHT22;6979;52.116;5.286;2023-06-24T12:27:38;34.60;74.00
13817;DHT22;6979;52.116;5.286;2023-06-24T12:30:06;34.60;74.60
13817;DHT22;6979;52.116;5.286;2023-06-24T12:32:35;34.60;74.10
13817;DHT22;6979;52.116;5.286;2023-06-24T12:35:03;34.70;74.50
13817;DHT22;6979;52.116;5.286;2023-06-24T12:37:30;34.80;75.60
13817;DHT22;6979;52.116;5.286;2023-06-24T12:39:58;34.90;75.20
13817;DHT22;6979;52.116;5.286;2023-06-24T12:42:25;35.10;75.10
13817;DHT22;6979;52.116;5.286;2023-06-24T12:44:52;35.20;74.90
13817;DHT22;6979;52.116;5.286;2023-06-24T12:47:19;35.40;74.50
13817;DHT22;6979;52.116;5.286;2023-06-24T12:49:48;35.50;73.90
13817;DHT22;6979;52.116;5.286;2023-06-24T12:52:15;35.70;73.50
13817;DHT22;6979;52.116;5.286;2023-06-24T12:54:43;35.70;73.70
13817;DHT22;6979;52.116;5.286;2023-06-24T12:57:09;35.70;73.10
13817;DHT22;6979;52.116;5.286;2023-06-24T12:59:36;35.70;72.70
13817;DHT22;6979;52.116;5.286;2023-06-24T13:02:04;35.70;72.50
13817;DHT22;6979;52.116;5.286;2023-06-24T13:04:31;35.60;72.80
13817;DHT22;6979;52.116;5.286;2023-06-24T13:06:59;35.50;73.10
13817;DHT22;6979;52.116;5.286;2023-06-24T13:09:26;35.50;73.50
13817;DHT22;6979;52.116;5.286;2023-06-24T13:11:53;35.50;73.50
13817;DHT22;6979;52.116;5.286;2023-06-24T13:14:20;35.60;73.10
13817;DHT22;6979;52.116;5.286;2023-06-24T13:16:47;35.70;72.50
13817;DHT22;6979;52.116;5.286;2023-06-24T13:19:14;35.70;72.30
13817;DHT22;6979;52.116;5.286;2023-06-24T13:21:41;35.70;72.60
13817;DHT22;6979;52.116;5.286;2023-06-24T13:24:09;35.70;71.80
13817;DHT22;6979;52.116;5.286;2023-06-24T13:26:38;35.70;71.70
13817;DHT22;6979;52.116;5.286;2023-06-24T13:29:05;35.60;72.10
13817;DHT22;6979;52.116;5.286;2023-06-24T13:31:33;35.60;72.50
13817;DHT22;6979;52.116;5.286;2023-06-24T13:34:00;35.50;72.20
13817;DHT22;6979;52.116;5.286;2023-06-24T13:36:31;35.40;72.80
13817;DHT22;6979;52.116;5.286;2023-06-24T13:39:01;35.40;72.90
13817;DHT22;6979;52.116;5.286;2023-06-24T13:41:29;35.20;72.60
13817;DHT22;6979;52.116;5.286;2023-06-24T13:43:58;35.10;73.40
13817;DHT22;6979;52.116;5.286;2023-06-24T13:46:25;34.90;73.50
13817;DHT22;6979;52.116;5.286;2023-06-24T13:48:52;34.80;73.80
13817;DHT22;6979;52.116;5.286;2023-06-24T13:51:19;34.70;73.90
13817;DHT22;6979;52.116;5.286;2023-06-24T13:53:48;34.70;75.10
13817;DHT22;6979;52.116;5.286;2023-06-24T13:56:15;34.60;74.70
13817;DHT22;6979;52.116;5.286;2023-06-24T13:58:44;34.50;75.30
13817;DHT22;6979;52.116;5.286;2023-06-24T14:01:11;34.60;75.40
13817;DHT22;6979;52.116;5.286;2023-06-24T14:03:38;34.60;75.30
13817;DHT22;6979;52.116;5.286;2023-06-24T14:06:05;34.70;75.00
13817;DHT22;6979;52.116;5.286;2023-06-24T14:08:32;34.80;74.90
13817;DHT22;6979;52.116;5.286;2023-06-24T14:11:00;34.90;74.90
13817;DHT22;6979;52.116;5.286;2023-06-24T14:13:27;34.90;74.80
13817;DHT22;6979;52.116;5.286;2023-06-24T14:15:58;35.00;74.80
13817;DHT22;6979;52.116;5.286;2023-06-24T14:18:26;35.00;74.50
13817;DHT22;6979;52.116;5.286;2023-06-24T14:20:53;35.10;74.60
13817;DHT22;6979;52.116;5.286;2023-06-24T14:23:20;35.10;74.30
13817;DHT22;6979;52.116;5.286;2023-06-24T14:25:47;35.10;74.40
13817;DHT22;6979;52.116;5.286;2023-06-24T14:28:14;35.00;74.50
13817;DHT22;6979;52.116;5.286;2023-06-24T14:30:41;35.00;73.90
13817;DHT22;6979;52.116;5.286;2023-06-24T14:33:09;34.90;74.10
13817;DHT22;6979;52.116;5.286;2023-06-24T14:35:36;34.90;74.90
13817;DHT22;6979;52.116;5.286;2023-06-24T14:38:03;34.80;74.60
13817;DHT22;6979;52.116;5.286;2023-06-24T14:40:31;34.80;74.20
13817;DHT22;6979;52.116;5.286;2023-06-24T14:42:58;34.80;74.60
13817;DHT22;6979;52.116;5.286;2023-06-24T14:45:25;34.80;74.50
13817;DHT22;6979;52.116;5.286;2023-06-24T14:47:51;34.90;74.50
13817;DHT22;6979;52.116;5.286;2023-06-24T14:50:20;34.90;74.20
13817;DHT22;6979;52.116;5.286;2023-06-24T14:52:47;34.90;74.00
13817;DHT22;6979;52.116;5.286;2023-06-24T14:55:14;34.80;72.90
13817;DHT22;6979;52.116;5.286;2023-06-24T14:57:41;34.70;73.40
13817;DHT22;6979;52.116;5.286;2023-06-24T15:00:09;34.60;73.90
13817;DHT22;6979;52.116;5.286;2023-06-24T15:02:36;34.50;74.60
13817;DHT22;6979;52.116;5.286;2023-06-24T15:05:04;34.50;75.70
13817;DHT22;6979;52.116;5.286;2023-06-24T15:07:32;34.40;75.00
13817;DHT22;6979;52.116;5.286;2023-06-24T15:09:59;34.40;74.30
13817;DHT22;6979;52.116;5.286;2023-06-24T15:12:26;34.40;74.50
13817;DHT22;6979;52.116;5.286;2023-06-24T15:14:53;34.40;75.10
13817;DHT22;6979;52.116;5.286;2023-06-24T15:17:20;34.50;75.90
13817;DHT22;6979;52.116;5.286;2023-06-24T15:19:47;34.60;75.50
13817;DHT22;6979;52.116;5.286;2023-06-24T15:22:14;34.70;75.20
13817;DHT22;6979;52.116;5.286;2023-06-24T15:24:43;34.80;74.20
13817;DHT22;6979;52.116;5.286;2023-06-24T15:27:10;34.90;73.90
13817;DHT22;6979;52.116;5.286;2023-06-24T15:29:37;34.90;73.30
13817;DHT22;6979;52.116;5.286;2023-06-24T15:32:05;34.90;73.60
13817;DHT22;6979;52.116;5.286;2023-06-24T15:34:32;34.90;73.60
13817;DHT22;6979;52.116;5.286;2023-06-24T15:36:59;35.00;73.40
13817;DHT22;6979;52.116;5.286;2023-06-24T15:39:25;35.00;73.00
13817;DHT22;6979;52.116;5.286;2023-06-24T15:41:54;35.00;72.60
13817;DHT22;6979;52.116;5.286;2023-06-24T15:44:21;35.10;72.80
13817;DHT22;6979;52.116;5.286;2023-06-24T15:46:48;35.10;73.20
13817;DHT22;6979;52.116;5.286;2023-06-24T15:49:15;35.10;73.50
13817;DHT22;6979;52.116;5.286;2023-06-24T15:51:42;35.20;73.60